createdAt,value
2023-04-02T00:02:21.298Z,22.00
2023-04-02T00:05:19.715Z,22.70
2023-04-02T00:07:52.075Z,22.10
2023-04-02T00:10:36.078Z,21.90
2023-04-02T00:13:12.047Z,22.60
2023-04-02T00:15:40.535Z,22.40
2023-04-02T00:18:09.602Z,21.90
2023-04-02T00:20:40.905Z,22.20
2023-04-02T00:23:12.041Z,21.80
2023-04-02T00:25:48.629Z,21.40
2023-04-02T00:28:22.922Z,21.70
2023-04-02T00:30:56.499Z,21.80
2023-04-02T00:33:26.751Z,21.30
2023-04-02T00:35:55.417Z,22.00
2023-04-02T00:38:28.596Z,21.80
2023-04-02T00:40:59.250Z,21.60
2023-04-02T00:43:28.794Z,20.90
2023-04-02T00:45:59.209Z,21.00
2023-04-02T00:48:32.156Z,21.10
2023-04-02T00:51:14.676Z,20.70
2023-04-02T00:53:44.344Z,20.60
2023-04-02T00:56:34.734Z,20.50
2023-04-02T00:59:02.086Z,20.80
2023-04-02T01:01:36.735Z,20.80
2023-04-02T01:04:05.895Z,20.60
2023-04-02T01:06:37.353Z,20.50
2023-04-02T01:09:07.217Z,20.70
2023-04-02T01:11:51.676Z,20.60
2023-04-02T01:14:41.359Z,20.60
2023-04-02T01:17:18.706Z,20.50
2023-04-02T01:20:22.832Z,20.40
2023-04-02T01:23:02.729Z,20.30
2023-04-02T01:25:44.115Z,20.40
2023-04-02T01:28:33.800Z,20.70
2023-04-02T01:31:02.544Z,20.70
2023-04-02T01:33:33.585Z,21.00
2023-04-02T01:36:05.973Z,20.60
2023-04-02T01:38:40.850Z,20.30
2023-04-02T01:41:28.985Z,20.50
2023-04-02T01:44:07.868Z,20.10
2023-04-02T01:46:38.775Z,19.80
2023-04-02T01:49:14.544Z,20.30
2023-04-02T01:51:47.662Z,20.30
2023-04-02T01:54:17.204Z,20.30
2023-04-02T01:56:45.643Z,20.20
2023-04-02T01:59:13.494Z,20.90
2023-04-02T02:02:04.527Z,20.90
2023-04-02T02:04:32.367Z,21.10
2023-04-02T02:07:01.157Z,20.20
2023-04-02T02:09:34.324Z,20.30
2023-04-02T02:12:03.051Z,20.20
2023-04-02T02:14:31.703Z,19.70
2023-04-02T02:17:02.562Z,20.10
2023-04-02T02:19:36.496Z,19.80
2023-04-02T02:22:18.650Z,19.70
2023-04-02T02:24:45.911Z,19.80
2023-04-02T02:27:25.238Z,19.90
2023-04-02T02:29:56.996Z,20.00
2023-04-02T02:32:29.155Z,20.10
2023-04-02T02:35:37.267Z,20.70
2023-04-02T02:38:26.214Z,20.90
2023-04-02T02:41:02.932Z,20.90
2023-04-02T02:43:30.461Z,20.70
2023-04-02T02:45:58.510Z,20.90
2023-04-02T02:48:34.698Z,21.10
2023-04-02T02:51:07.866Z,20.80
2023-04-02T02:53:48.985Z,21.50
2023-04-02T02:56:16.128Z,21.00
2023-04-02T02:58:43.768Z,20.30
2023-04-02T03:01:11.831Z,20.50
2023-04-02T03:03:39.167Z,20.50
2023-04-02T03:06:10.334Z,20.70
2023-04-02T03:08:43.954Z,20.90
2023-04-02T03:11:19.759Z,21.10
2023-04-02T03:13:50.996Z,21.30
2023-04-02T03:16:23.537Z,21.30
2023-04-02T03:18:58.504Z,20.70
2023-04-02T03:21:30.411Z,20.80
2023-04-02T03:24:32.547Z,20.90
2023-04-02T03:27:08.692Z,20.90
2023-04-02T03:29:43.411Z,20.80
2023-04-02T03:32:23.427Z,20.60
2023-04-02T03:34:53.405Z,21.20
2023-04-02T03:37:26.066Z,20.90
2023-04-02T03:39:56.773Z,21.30
2023-04-02T03:42:26.307Z,21.00
2023-04-02T03:45:21.461Z,20.60
2023-04-02T03:47:54.403Z,20.40
2023-04-02T03:50:31.861Z,20.50
2023-04-02T03:52:59.818Z,20.70
2023-04-02T03:55:32.650Z,20.90
2023-04-02T03:58:29.247Z,20.90
2023-04-02T04:01:05.946Z,20.30
2023-04-02T04:03:44.047Z,20.50
2023-04-02T04:06:21.415Z,20.50
2023-04-02T04:08:56.225Z,20.50
2023-04-02T04:11:29.147Z,19.80
2023-04-02T04:14:07.738Z,19.80
2023-04-02T04:16:47.531Z,20.10
2023-04-02T04:19:33.412Z,20.10
2023-04-02T04:22:14.489Z,20.30
2023-04-02T04:24:45.704Z,19.70
2023-04-02T04:27:33.735Z,19.80
2023-04-02T04:30:14.951Z,19.70
2023-04-02T04:32:50.346Z,20.00
2023-04-02T04:35:39.141Z,19.90
2023-04-02T04:38:14.572Z,20.10
2023-04-02T04:41:24.456Z,20.20
2023-04-02T04:44:06.609Z,20.40
2023-04-02T04:46:42.542Z,20.40
2023-04-02T04:49:19.778Z,20.50
2023-04-02T04:51:54.910Z,20.40
2023-04-02T04:54:27.569Z,20.60
2023-04-02T04:57:03.695Z,21.20
2023-04-02T04:59:42.180Z,20.90
2023-04-02T05:02:20.267Z,20.30
2023-04-02T05:04:52.067Z,20.30
2023-04-02T05:07:27.784Z,20.60
2023-04-02T05:10:00.474Z,20.30
2023-04-02T05:12:46.998Z,20.60
2023-04-02T05:15:19.630Z,20.20
2023-04-02T05:18:25.584Z,20.00
2023-04-02T05:21:04.120Z,20.30
2023-04-02T05:23:38.059Z,19.90
2023-04-02T05:26:30.085Z,19.60
2023-04-02T05:29:12.387Z,19.80
2023-04-02T05:31:55.685Z,20.00
2023-04-02T05:34:27.913Z,20.40
2023-04-02T05:36:55.800Z,20.80
2023-04-02T05:39:24.883Z,21.30
2023-04-02T05:42:06.611Z,21.10
2023-04-02T05:44:44.385Z,20.30
2023-04-02T05:47:20.970Z,20.60
2023-04-02T05:50:09.648Z,20.60
2023-04-02T05:52:42.736Z,20.50
2023-04-02T05:55:12.764Z,20.30
2023-04-02T05:57:54.841Z,20.40
2023-04-02T06:00:40.879Z,20.50
2023-04-02T06:03:40.009Z,21.00
2023-04-02T06:06:22.212Z,21.80
2023-04-02T06:09:01.654Z,21.30
2023-04-02T06:11:42.929Z,21.70
2023-04-02T06:14:13.149Z,21.30
2023-04-02T06:16:41.102Z,21.30
2023-04-02T06:19:16.533Z,21.10
2023-04-02T06:21:49.969Z,21.20
2023-04-02T06:24:22.905Z,21.20
2023-04-02T06:27:00.001Z,20.30
2023-04-02T06:29:41.585Z,21.00
2023-04-02T06:32:10.980Z,20.90
2023-04-02T06:34:40.875Z,20.70
2023-04-02T06:37:31.757Z,20.60
2023-04-02T06:40:01.135Z,20.50
2023-04-02T06:42:34.065Z,20.40
2023-04-02T06:45:01.363Z,20.60
2023-04-02T06:47:39.726Z,20.80
2023-04-02T06:50:23.437Z,21.60
2023-04-02T06:52:52.003Z,21.30
2023-04-02T06:55:34.311Z,21.50
2023-04-02T06:58:01.595Z,20.80
2023-04-02T07:00:39.357Z,20.30
2023-04-02T07:03:13.581Z,20.60
2023-04-02T07:05:42.530Z,20.90
2023-04-02T07:08:10.033Z,21.10
2023-04-02T07:10:37.311Z,20.80
2023-04-02T07:13:05.793Z,20.10
2023-04-02T07:15:33.095Z,19.90
2023-04-02T07:18:00.718Z,20.60
2023-04-02T07:20:38.837Z,19.70
2023-04-02T07:23:05.957Z,19.30
2023-04-02T07:25:33.116Z,19.80
2023-04-02T07:28:01.762Z,20.50
2023-04-02T07:30:29.024Z,20.80
2023-04-02T07:32:56.285Z,20.90
2023-04-02T07:35:23.416Z,21.30
2023-04-02T07:37:50.891Z,21.10
2023-04-02T07:40:22.959Z,20.70
2023-04-02T07:42:50.499Z,20.90
2023-04-02T07:45:17.733Z,20.30
2023-04-02T07:47:45.230Z,20.30
2023-04-02T07:50:12.323Z,20.40
2023-04-02T07:52:44.208Z,20.30
2023-04-02T07:55:12.936Z,20.00
2023-04-02T07:57:55.161Z,20.50
2023-04-02T08:00:22.851Z,20.50
2023-04-02T08:02:55.597Z,20.10
2023-04-02T08:05:23.018Z,20.20
2023-04-02T08:07:55.618Z,19.60
2023-04-02T08:10:23.649Z,19.80
2023-04-02T08:12:50.789Z,18.70
2023-04-02T08:15:18.406Z,18.10
2023-04-02T08:17:46.657Z,19.30
2023-04-02T08:20:22.473Z,19.50
2023-04-02T08:22:50.681Z,19.30
2023-04-02T08:25:18.168Z,19.50
2023-04-02T08:27:48.293Z,19.00
2023-04-02T08:30:16.631Z,19.40
2023-04-02T08:32:44.026Z,19.80
2023-04-02T08:35:14.798Z,19.50
2023-04-02T08:37:42.082Z,19.80
2023-04-02T08:40:36.590Z,20.50
2023-04-02T08:43:38.797Z,20.70
2023-04-02T08:46:29.771Z,20.50
2023-04-02T08:49:02.955Z,20.20
2023-04-02T08:51:34.460Z,20.00
2023-04-02T08:54:08.981Z,19.90
2023-04-02T08:56:56.830Z,20.40
2023-04-02T08:59:38.155Z,20.90
2023-04-02T09:02:08.260Z,20.50
2023-04-02T09:04:37.090Z,20.50
2023-04-02T09:07:04.418Z,20.60
2023-04-02T09:09:36.158Z,19.90
2023-04-02T09:12:04.954Z,19.40
2023-04-02T09:14:34.656Z,19.30
2023-04-02T09:17:04.450Z,19.90
2023-04-02T09:19:44.933Z,19.60
2023-04-02T09:22:22.098Z,19.80
2023-04-02T09:24:57.481Z,19.70
2023-04-02T09:27:30.749Z,19.60
2023-04-02T09:30:11.603Z,19.20
2023-04-02T09:32:53.558Z,19.30
2023-04-02T09:35:26.453Z,19.40
2023-04-02T09:38:12.738Z,19.30
2023-04-02T09:41:02.744Z,19.90
2023-04-02T09:43:35.933Z,19.60
2023-04-02T09:46:03.016Z,19.70
2023-04-02T09:48:41.493Z,20.10
2023-04-02T09:51:18.990Z,19.70
2023-04-02T09:53:51.336Z,19.60
2023-04-02T09:56:26.772Z,19.50
2023-04-02T09:59:15.486Z,19.60
2023-04-02T10:01:48.134Z,19.00
2023-04-02T10:04:46.537Z,19.50
2023-04-02T10:07:38.626Z,19.70
2023-04-02T10:10:39.168Z,19.20
2023-04-02T10:13:17.919Z,19.00
2023-04-02T10:16:09.362Z,19.70
2023-04-02T10:18:58.877Z,19.70
2023-04-02T10:21:37.728Z,19.60
2023-04-02T10:24:13.766Z,19.60
2023-04-02T10:26:55.386Z,19.30
2023-04-02T10:29:43.701Z,19.40
2023-04-02T10:32:16.553Z,19.70
2023-04-02T10:34:58.978Z,19.60
2023-04-02T10:37:41.585Z,19.60
2023-04-02T10:40:42.923Z,19.40
2023-04-02T10:43:28.533Z,19.90
2023-04-02T10:46:04.519Z,20.20
2023-04-02T10:48:36.927Z,19.30
2023-04-02T10:51:31.157Z,19.40
2023-04-02T10:53:58.140Z,19.50
2023-04-02T10:56:26.380Z,19.80
2023-04-02T10:59:22.710Z,20.50
2023-04-02T11:01:52.296Z,19.80
2023-04-02T11:04:27.841Z,20.20
2023-04-02T11:07:14.448Z,19.20
2023-04-02T11:09:46.056Z,19.80
2023-04-02T11:12:22.091Z,19.70
2023-04-02T11:14:51.931Z,19.40
2023-04-02T11:17:20.232Z,19.00
2023-04-02T11:19:47.727Z,19.40
2023-04-02T11:22:24.807Z,20.30
2023-04-02T11:24:54.903Z,20.30
2023-04-02T11:27:29.688Z,19.70
2023-04-02T11:30:13.926Z,19.70
2023-04-02T11:32:49.752Z,19.20
2023-04-02T11:35:32.443Z,19.90
2023-04-02T11:38:04.283Z,19.60
2023-04-02T11:40:58.453Z,20.20
2023-04-02T11:43:34.564Z,20.60
2023-04-02T11:46:16.761Z,20.30
2023-04-02T11:48:44.043Z,20.70
2023-04-02T11:51:31.604Z,20.20
2023-04-02T11:54:00.172Z,19.20
2023-04-02T11:56:42.593Z,20.20
2023-04-02T11:59:27.127Z,20.10
2023-04-02T12:02:19.557Z,19.50
2023-04-02T12:05:14.639Z,18.90
2023-04-02T12:08:10.988Z,19.70
2023-04-02T12:11:02.688Z,19.80
2023-04-02T12:13:43.336Z,19.40
2023-04-02T12:16:11.536Z,18.10
2023-04-02T12:18:56.955Z,17.60
2023-04-02T12:21:26.997Z,17.60
2023-04-02T12:23:57.898Z,17.90
2023-04-02T12:26:32.522Z,18.00
2023-04-02T12:29:26.577Z,18.10
2023-04-02T12:31:59.189Z,17.70
2023-04-02T12:34:30.604Z,18.00
2023-04-02T12:37:03.858Z,18.10
2023-04-02T12:39:35.196Z,17.70
2023-04-02T12:42:02.627Z,18.70
2023-04-02T12:44:31.243Z,18.20
2023-04-02T12:46:59.094Z,17.80
2023-04-02T12:49:33.688Z,17.80
2023-04-02T12:52:07.379Z,16.90
2023-04-02T12:54:44.115Z,17.10
2023-04-02T12:57:24.048Z,17.10
2023-04-02T12:59:51.881Z,17.10
2023-04-02T13:02:45.040Z,17.00
2023-04-02T13:05:12.489Z,17.50
2023-04-02T13:07:42.055Z,17.50
2023-04-02T13:10:26.744Z,17.00
2023-04-02T13:12:59.624Z,17.60
2023-04-02T13:15:32.180Z,17.50
2023-04-02T13:18:04.269Z,17.60
2023-04-02T13:20:38.202Z,17.90
2023-04-02T13:23:31.033Z,17.90
2023-04-02T13:25:58.120Z,17.80
2023-04-02T13:28:25.433Z,18.10
2023-04-02T13:30:55.714Z,18.50
2023-04-02T13:33:23.134Z,17.50
2023-04-02T13:35:50.528Z,17.50
2023-04-02T13:38:17.602Z,17.40
2023-04-02T13:40:44.929Z,17.60
2023-04-02T13:43:19.854Z,17.50
2023-04-02T13:45:51.705Z,17.70
2023-04-02T13:48:18.822Z,17.50
2023-04-02T13:50:46.897Z,17.70
2023-04-02T13:53:28.134Z,17.20
2023-04-02T13:55:55.727Z,17.10
2023-04-02T13:58:23.052Z,17.30
2023-04-02T14:00:50.574Z,16.80
2023-04-02T14:03:22.644Z,16.40
2023-04-02T14:06:05.106Z,17.20
2023-04-02T14:09:09.197Z,17.40
2023-04-02T14:12:00.251Z,17.70
2023-04-02T14:14:45.669Z,17.20
2023-04-02T14:17:36.041Z,17.60
2023-04-02T14:20:40.290Z,17.60
2023-04-02T14:23:25.988Z,17.70
2023-04-02T14:26:23.839Z,18.40
2023-04-02T14:29:10.040Z,17.00
2023-04-02T14:31:41.576Z,17.90
2023-04-02T14:34:41.693Z,18.10
2023-04-02T14:37:23.265Z,18.20
2023-04-02T14:40:11.818Z,18.30
2023-04-02T14:42:47.521Z,18.60
2023-04-02T14:45:57.270Z,17.90
2023-04-02T14:48:43.015Z,17.90
2023-04-02T14:51:43.789Z,18.20
2023-04-02T14:54:32.068Z,18.80
2023-04-02T14:57:04.295Z,19.10
2023-04-02T14:59:54.999Z,18.90
2023-04-02T15:02:47.324Z,18.90
2023-04-02T15:05:28.269Z,18.70
2023-04-02T15:08:06.724Z,18.00
2023-04-02T15:10:44.064Z,18.20
2023-04-02T15:13:20.027Z,18.60
2023-04-02T15:15:52.720Z,18.70
2023-04-02T15:18:19.885Z,18.30
2023-04-02T15:20:55.043Z,18.60
2023-04-02T15:23:44.843Z,18.90
2023-04-02T15:26:21.760Z,19.20
2023-04-02T15:28:59.675Z,19.30
2023-04-02T15:31:28.313Z,20.10
2023-04-02T15:34:11.916Z,20.40
2023-04-02T15:36:55.113Z,19.90
2023-04-02T15:39:40.078Z,20.20
2023-04-02T15:42:23.939Z,20.70
2023-04-02T15:45:15.979Z,20.70
2023-04-02T15:48:02.431Z,20.50
2023-04-02T15:50:49.333Z,20.90
2023-04-02T15:53:39.310Z,20.00
2023-04-02T15:56:35.836Z,20.00
2023-04-02T15:59:38.272Z,20.00
2023-04-02T16:02:26.938Z,20.00
2023-04-02T16:05:15.731Z,19.70
2023-04-02T16:08:10.722Z,20.70
2023-04-02T16:10:42.556Z,21.20
2023-04-02T16:13:19.220Z,21.40
2023-04-02T16:16:09.245Z,21.40
2023-04-02T16:19:02.998Z,21.90
2023-04-02T16:21:54.487Z,21.70
2023-04-02T16:24:22.840Z,22.00
2023-04-02T16:27:17.982Z,21.80
2023-04-02T16:29:55.487Z,21.70
2023-04-02T16:32:44.444Z,21.00
2023-04-02T16:35:41.895Z,21.10
2023-04-02T16:38:24.191Z,20.60
2023-04-02T16:41:33.535Z,20.90
2023-04-02T16:45:19.502Z,21.60
2023-04-02T16:48:08.588Z,20.90
2023-04-02T16:50:38.920Z,20.80
2023-04-02T16:53:54.479Z,20.40
2023-04-02T16:56:51.864Z,20.70
2023-04-02T16:59:34.538Z,20.40
2023-04-02T17:02:12.168Z,20.60
2023-04-02T17:05:10.092Z,20.30
2023-04-02T17:07:55.674Z,20.00
2023-04-02T17:11:01.417Z,19.80
2023-04-02T17:13:32.668Z,20.20
2023-04-02T17:16:20.083Z,20.10
2023-04-02T17:18:51.204Z,20.90
2023-04-02T17:21:26.342Z,20.70
2023-04-02T17:24:06.509Z,20.60
2023-04-02T17:26:37.429Z,20.20
2023-04-02T17:29:13.118Z,20.30
2023-04-02T17:31:42.171Z,20.30
2023-04-02T17:34:24.049Z,20.70
2023-04-02T17:37:44.914Z,20.80
2023-04-02T17:40:30.402Z,20.90
2023-04-02T17:43:35.758Z,20.20
2023-04-02T17:46:23.930Z,20.90
2023-04-02T17:49:17.314Z,21.00
2023-04-02T17:52:15.150Z,20.80
2023-04-02T17:55:00.888Z,20.70
2023-04-02T17:58:02.331Z,20.40
2023-04-02T18:01:12.935Z,19.90
2023-04-02T18:03:58.361Z,20.00
2023-04-02T18:07:05.740Z,20.00
2023-04-02T18:09:54.454Z,19.70
2023-04-02T18:12:37.731Z,20.00
2023-04-02T18:15:38.942Z,20.30
2023-04-02T18:18:24.631Z,20.30
2023-04-02T18:21:30.761Z,20.00
2023-04-02T18:24:15.985Z,19.90
2023-04-02T18:26:48.972Z,19.70
2023-04-02T18:29:22.007Z,19.70
2023-04-02T18:31:58.026Z,19.60
2023-04-02T18:34:52.925Z,19.40
2023-04-02T18:37:29.606Z,19.60
2023-04-02T18:40:18.135Z,19.50
2023-04-02T18:43:04.326Z,19.20
2023-04-02T18:45:57.279Z,19.50
2023-04-02T18:48:50.099Z,19.70
2023-04-02T18:51:25.275Z,19.20
2023-04-02T18:54:19.836Z,18.90
2023-04-02T18:56:47.039Z,19.30
2023-04-02T18:59:40.184Z,19.30
2023-04-02T19:02:47.742Z,19.30
2023-04-02T19:05:32.806Z,18.80
2023-04-02T19:08:22.095Z,18.70
2023-04-02T19:11:13.666Z,19.00
2023-04-02T19:13:40.830Z,19.30
2023-04-02T19:16:22.947Z,19.00
2023-04-02T19:19:09.224Z,18.90
2023-04-02T19:21:53.220Z,18.90
2023-04-02T19:24:41.930Z,18.80
2023-04-02T19:27:32.584Z,18.40
2023-04-02T19:30:18.782Z,18.30
2023-04-02T19:33:23.077Z,18.20
2023-04-02T19:36:34.331Z,18.50
2023-04-02T19:39:22.673Z,18.40
2023-04-02T19:42:36.009Z,18.30
2023-04-02T19:45:03.574Z,18.20
2023-04-02T19:47:31.738Z,18.30
2023-04-02T19:49:59.084Z,18.30
2023-04-02T19:52:26.036Z,18.20
2023-04-02T19:54:54.029Z,18.30
2023-04-02T19:57:21.719Z,18.20
2023-04-02T19:59:48.871Z,18.30
2023-04-02T20:02:17.401Z,18.50
2023-04-02T20:04:44.549Z,18.20
2023-04-02T20:07:11.564Z,18.40
2023-04-02T20:09:38.903Z,18.40
2023-04-02T20:12:06.151Z,18.30
2023-04-02T20:14:33.118Z,18.20
2023-04-02T20:17:00.193Z,18.20
2023-04-02T20:19:27.359Z,18.20
2023-04-02T20:21:54.694Z,18.40
2023-04-02T20:24:21.720Z,18.50
2023-04-02T20:26:49.033Z,18.40
2023-04-02T20:29:16.391Z,18.40
2023-04-02T20:31:43.346Z,18.40
2023-04-02T20:34:10.615Z,18.40
2023-04-02T20:36:37.730Z,18.50
2023-04-02T20:39:07.934Z,18.40
2023-04-02T20:41:35.013Z,18.20
2023-04-02T20:44:02.179Z,18.30
2023-04-02T20:46:29.460Z,18.20
2023-04-02T20:48:56.604Z,18.30
2023-04-02T20:51:23.820Z,18.60
2023-04-02T20:53:50.777Z,18.50
2023-04-02T20:56:20.341Z,18.40
2023-04-02T20:58:47.354Z,18.40
2023-04-02T21:01:29.015Z,18.50
2023-04-02T21:03:58.787Z,18.40
2023-04-02T21:06:31.694Z,18.50
2023-04-02T21:08:59.087Z,18.30
2023-04-02T21:11:26.335Z,18.50
2023-04-02T21:13:54.929Z,18.60
2023-04-02T21:16:30.092Z,18.40
2023-04-02T21:18:59.662Z,18.40
2023-04-02T21:21:27.764Z,18.40
2023-04-02T21:23:57.935Z,18.60
2023-04-02T21:26:26.422Z,19.10
2023-04-02T21:28:54.160Z,18.50
2023-04-02T21:31:26.849Z,18.40
2023-04-02T21:33:57.278Z,18.10
2023-04-02T21:36:27.675Z,18.10
2023-04-02T21:38:58.186Z,18.00
2023-04-02T21:41:29.339Z,18.00
2023-04-02T21:43:58.349Z,18.00
2023-04-02T21:46:28.169Z,18.10
2023-04-02T21:48:57.202Z,18.00
2023-04-02T21:51:30.328Z,18.00
2023-04-02T21:53:58.472Z,17.90
2023-04-02T21:56:36.948Z,17.80
2023-04-02T21:59:06.257Z,17.90
2023-04-02T22:01:36.684Z,17.90
2023-04-02T22:04:06.363Z,17.90
2023-04-02T22:06:38.132Z,18.10
2023-04-02T22:09:09.550Z,18.10
2023-04-02T22:11:40.729Z,18.20
2023-04-02T22:14:08.211Z,18.10
2023-04-02T22:16:36.670Z,18.10
2023-04-02T22:19:07.159Z,18.00
2023-04-02T22:21:36.212Z,18.00
2023-04-02T22:24:06.035Z,17.80
2023-04-02T22:26:34.179Z,17.80
2023-04-02T22:29:01.619Z,17.80
2023-04-02T22:31:30.778Z,17.80
2023-04-02T22:33:58.344Z,17.90
2023-04-02T22:36:26.985Z,17.90
2023-04-02T22:38:54.066Z,18.00
2023-04-02T22:41:27.585Z,18.00
2023-04-02T22:43:56.480Z,18.20
2023-04-02T22:46:25.072Z,18.30
2023-04-02T22:48:52.259Z,18.40
2023-04-02T22:51:21.162Z,18.50
2023-04-02T22:53:49.329Z,18.40
2023-04-02T22:56:21.770Z,18.60
2023-04-02T22:58:49.473Z,18.60
2023-04-02T23:01:29.249Z,18.70
2023-04-02T23:03:56.788Z,18.70
2023-04-02T23:06:24.592Z,18.90
2023-04-02T23:08:52.197Z,18.70
2023-04-02T23:11:25.056Z,18.50
2023-04-02T23:13:54.296Z,18.60
2023-04-02T23:16:23.152Z,18.50
2023-04-02T23:18:51.128Z,18.50
2023-04-02T23:21:19.471Z,18.50
2023-04-02T23:23:46.923Z,18.30
2023-04-02T23:26:18.127Z,18.20
2023-04-02T23:28:45.287Z,18.30
2023-04-02T23:31:18.445Z,18.40
2023-04-02T23:33:46.046Z,18.40
2023-04-02T23:36:28.425Z,18.40
2023-04-02T23:38:57.819Z,18.40
2023-04-02T23:41:27.130Z,18.60
2023-04-02T23:43:56.011Z,18.60
2023-04-02T23:46:23.840Z,18.70
2023-04-02T23:48:52.243Z,18.90
2023-04-02T23:51:19.526Z,18.70
2023-04-02T23:53:46.712Z,18.70
2023-04-02T23:56:13.649Z,18.70
2023-04-02T23:58:41.002Z,18.60
